Terminal Aerodrome Forecast
Issued by NWS

Home | Current Version | Previous Version | Graphics & Text | Print | Product List | Glossary On
Versions: 1 2 3 4 5 6 7 8 9 10 11 12 13
931
FTUS42 KMHX 082324
TAFISO
TAF
KISO 082324Z 0900/0924 32005KT P6SM BKN250
     FM090600 32005KT P6SM SKC
     FM091500 32010KT P6SM SKC
      AMD LTD TO CLD VIS AND WIND=

USA.gov is the U.S. government's official web portal to all federal, state and local government web resources and services.